sensor_id;sensor_type;location;lat;lon;timestamp;P1;durP1;ratioP1;P2;durP2;ratioP2
61471;SDS011;47337;54.068;12.114;2023-05-10T00:00:52;5.05;;;3.55;;
61471;SDS011;47337;54.068;12.114;2023-05-10T00:03:18;7.60;;;3.70;;
61471;SDS011;47337;54.068;12.114;2023-05-10T00:05:43;5.40;;;3.55;;
61471;SDS011;47337;54.068;12.114;2023-05-10T00:08:09;7.18;;;4.30;;
61471;SDS011;47337;54.068;12.114;2023-05-10T00:10:34;5.78;;;4.05;;
61471;SDS011;47337;54.068;12.114;2023-05-10T00:13:00;6.35;;;3.50;;
61471;SDS011;47337;54.068;12.114;2023-05-10T00:15:25;5.47;;;3.72;;
61471;SDS011;47337;54.068;12.114;2023-05-10T00:17:51;5.80;;;3.72;;
61471;SDS011;47337;54.068;12.114;2023-05-10T00:20:18;5.22;;;3.70;;
61471;SDS011;47337;54.068;12.114;2023-05-10T00:22:46;9.45;;;4.10;;
61471;SDS011;47337;54.068;12.114;2023-05-10T00:25:11;4.60;;;3.28;;
61471;SDS011;47337;54.068;12.114;2023-05-10T00:27:37;5.15;;;4.07;;
61471;SDS011;47337;54.068;12.114;2023-05-10T00:30:02;9.25;;;5.20;;
61471;SDS011;47337;54.068;12.114;2023-05-10T00:32:31;6.32;;;3.58;;
61471;SDS011;47337;54.068;12.114;2023-05-10T00:34:56;4.57;;;3.55;;
61471;SDS011;47337;54.068;12.114;2023-05-10T00:37:21;5.82;;;3.28;;
61471;SDS011;47337;54.068;12.114;2023-05-10T00:39:52;6.28;;;3.65;;
61471;SDS011;47337;54.068;12.114;2023-05-10T00:42:17;4.57;;;3.20;;
61471;SDS011;47337;54.068;12.114;2023-05-10T00:44:42;7.78;;;4.07;;
61471;SDS011;47337;54.068;12.114;2023-05-10T00:47:11;5.47;;;3.53;;
61471;SDS011;47337;54.068;12.114;2023-05-10T00:49:39;4.40;;;3.33;;
61471;SDS011;47337;54.068;12.114;2023-05-10T00:52:06;5.93;;;4.07;;
61471;SDS011;47337;54.068;12.114;2023-05-10T00:54:32;6.20;;;4.22;;
61471;SDS011;47337;54.068;12.114;2023-05-10T00:56:58;7.05;;;4.13;;
61471;SDS011;47337;54.068;12.114;2023-05-10T00:59:26;4.47;;;3.45;;
61471;SDS011;47337;54.068;12.114;2023-05-10T01:01:52;4.72;;;3.92;;
61471;SDS011;47337;54.068;12.114;2023-05-10T01:04:18;7.90;;;4.20;;
61471;SDS011;47337;54.068;12.114;2023-05-10T01:06:46;5.65;;;3.83;;
61471;SDS011;47337;54.068;12.114;2023-05-10T01:09:12;4.75;;;3.70;;
61471;SDS011;47337;54.068;12.114;2023-05-10T01:11:38;4.88;;;3.60;;
61471;SDS011;47337;54.068;12.114;2023-05-10T01:14:04;7.57;;;4.00;;
61471;SDS011;47337;54.068;12.114;2023-05-10T01:16:40;5.80;;;3.80;;
61471;SDS011;47337;54.068;12.114;2023-05-10T01:19:11;5.15;;;3.90;;
61471;SDS011;47337;54.068;12.114;2023-05-10T01:24:21;8.07;;;4.20;;
61471;SDS011;47337;54.068;12.114;2023-05-10T01:34:54;6.65;;;3.90;;
61471;SDS011;47337;54.068;12.114;2023-05-10T01:37:20;5.43;;;3.95;;
61471;SDS011;47337;54.068;12.114;2023-05-10T01:40:00;9.98;;;4.82;;
61471;SDS011;47337;54.068;12.114;2023-05-10T01:42:39;7.03;;;4.50;;
61471;SDS011;47337;54.068;12.114;2023-05-10T01:45:18;8.27;;;4.22;;
61471;SDS011;47337;54.068;12.114;2023-05-10T01:47:53;6.00;;;4.30;;
61471;SDS011;47337;54.068;12.114;2023-05-10T01:50:24;6.45;;;4.55;;
61471;SDS011;47337;54.068;12.114;2023-05-10T01:52:54;6.90;;;4.32;;
61471;SDS011;47337;54.068;12.114;2023-05-10T01:55:23;7.95;;;4.38;;
61471;SDS011;47337;54.068;12.114;2023-05-10T01:57:57;6.40;;;4.28;;
61471;SDS011;47337;54.068;12.114;2023-05-10T02:00:28;6.90;;;4.45;;
61471;SDS011;47337;54.068;12.114;2023-05-10T02:02:55;7.40;;;4.70;;
61471;SDS011;47337;54.068;12.114;2023-05-10T02:05:21;6.15;;;4.28;;
61471;SDS011;47337;54.068;12.114;2023-05-10T02:07:47;7.18;;;4.88;;
61471;SDS011;47337;54.068;12.114;2023-05-10T02:10:15;6.20;;;4.10;;
61471;SDS011;47337;54.068;12.114;2023-05-10T02:12:42;5.78;;;3.97;;
61471;SDS011;47337;54.068;12.114;2023-05-10T02:15:11;6.13;;;4.15;;
61471;SDS011;47337;54.068;12.114;2023-05-10T02:17:40;6.47;;;4.40;;
61471;SDS011;47337;54.068;12.114;2023-05-10T02:20:07;11.13;;;4.57;;
61471;SDS011;47337;54.068;12.114;2023-05-10T02:22:35;6.93;;;3.95;;
61471;SDS011;47337;54.068;12.114;2023-05-10T02:25:01;7.80;;;4.43;;
61471;SDS011;47337;54.068;12.114;2023-05-10T02:27:31;6.57;;;4.40;;
61471;SDS011;47337;54.068;12.114;2023-05-10T02:30:00;7.65;;;4.88;;
61471;SDS011;47337;54.068;12.114;2023-05-10T02:32:30;5.95;;;4.63;;
61471;SDS011;47337;54.068;12.114;2023-05-10T02:34:56;6.90;;;4.15;;
61471;SDS011;47337;54.068;12.114;2023-05-10T02:37:28;8.02;;;4.57;;
61471;SDS011;47337;54.068;12.114;2023-05-10T02:39:54;8.20;;;4.45;;
61471;SDS011;47337;54.068;12.114;2023-05-10T02:42:27;8.23;;;4.70;;
61471;SDS011;47337;54.068;12.114;2023-05-10T02:44:59;7.07;;;4.60;;
61471;SDS011;47337;54.068;12.114;2023-05-10T02:47:26;8.48;;;4.53;;
61471;SDS011;47337;54.068;12.114;2023-05-10T02:49:53;7.32;;;5.00;;
61471;SDS011;47337;54.068;12.114;2023-05-10T02:52:20;7.85;;;4.53;;
61471;SDS011;47337;54.068;12.114;2023-05-10T02:54:50;9.85;;;5.25;;
61471;SDS011;47337;54.068;12.114;2023-05-10T02:57:31;6.13;;;4.72;;
61471;SDS011;47337;54.068;12.114;2023-05-10T03:00:02;8.13;;;4.75;;
61471;SDS011;47337;54.068;12.114;2023-05-10T03:02:28;8.38;;;4.85;;
61471;SDS011;47337;54.068;12.114;2023-05-10T03:04:55;7.30;;;4.40;;
61471;SDS011;47337;54.068;12.114;2023-05-10T03:07:23;6.38;;;4.38;;
61471;SDS011;47337;54.068;12.114;2023-05-10T03:09:48;7.05;;;4.35;;
61471;SDS011;47337;54.068;12.114;2023-05-10T03:12:31;5.88;;;4.55;;
61471;SDS011;47337;54.068;12.114;2023-05-10T03:15:27;7.80;;;4.70;;
61471;SDS011;47337;54.068;12.114;2023-05-10T03:21:11;6.93;;;4.93;;
61471;SDS011;47337;54.068;12.114;2023-05-10T03:23:49;11.45;;;4.75;;
61471;SDS011;47337;54.068;12.114;2023-05-10T03:26:26;7.35;;;4.88;;
61471;SDS011;47337;54.068;12.114;2023-05-10T03:28:55;7.50;;;5.00;;
61471;SDS011;47337;54.068;12.114;2023-05-10T03:31:22;7.13;;;4.57;;
61471;SDS011;47337;54.068;12.114;2023-05-10T03:33:50;9.90;;;5.72;;
61471;SDS011;47337;54.068;12.114;2023-05-10T03:36:18;7.00;;;5.13;;
61471;SDS011;47337;54.068;12.114;2023-05-10T03:38:46;6.07;;;5.20;;
61471;SDS011;47337;54.068;12.114;2023-05-10T03:41:13;8.45;;;4.95;;
61471;SDS011;47337;54.068;12.114;2023-05-10T03:43:41;7.75;;;4.78;;
61471;SDS011;47337;54.068;12.114;2023-05-10T03:46:09;7.15;;;5.30;;
61471;SDS011;47337;54.068;12.114;2023-05-10T03:48:34;8.07;;;4.95;;
61471;SDS011;47337;54.068;12.114;2023-05-10T03:51:00;7.43;;;4.80;;
61471;SDS011;47337;54.068;12.114;2023-05-10T03:53:25;6.75;;;4.90;;
61471;SDS011;47337;54.068;12.114;2023-05-10T03:55:53;6.38;;;4.78;;
61471;SDS011;47337;54.068;12.114;2023-05-10T03:58:21;5.85;;;4.40;;
61471;SDS011;47337;54.068;12.114;2023-05-10T04:00:46;5.78;;;4.47;;
61471;SDS011;47337;54.068;12.114;2023-05-10T04:03:17;12.15;;;5.10;;
61471;SDS011;47337;54.068;12.114;2023-05-10T04:05:43;6.82;;;4.63;;
61471;SDS011;47337;54.068;12.114;2023-05-10T04:08:10;6.80;;;4.47;;
61471;SDS011;47337;54.068;12.114;2023-05-10T04:10:36;7.15;;;4.68;;
61471;SDS011;47337;54.068;12.114;2023-05-10T04:13:01;5.43;;;4.13;;
61471;SDS011;47337;54.068;12.114;2023-05-10T04:15:29;6.50;;;4.80;;
61471;SDS011;47337;54.068;12.114;2023-05-10T04:17:54;7.93;;;4.43;;
61471;SDS011;47337;54.068;12.114;2023-05-10T04:20:23;5.53;;;4.18;;
61471;SDS011;47337;54.068;12.114;2023-05-10T04:22:48;7.30;;;4.65;;
61471;SDS011;47337;54.068;12.114;2023-05-10T04:25:15;6.63;;;4.65;;
61471;SDS011;47337;54.068;12.114;2023-05-10T04:27:43;5.03;;;4.32;;
61471;SDS011;47337;54.068;12.114;2023-05-10T04:30:11;5.13;;;4.13;;
61471;SDS011;47337;54.068;12.114;2023-05-10T04:32:36;4.85;;;3.75;;
61471;SDS011;47337;54.068;12.114;2023-05-10T04:35:02;5.07;;;3.95;;
61471;SDS011;47337;54.068;12.114;2023-05-10T04:37:29;5.47;;;4.05;;
61471;SDS011;47337;54.068;12.114;2023-05-10T04:39:55;8.73;;;4.32;;
61471;SDS011;47337;54.068;12.114;2023-05-10T04:42:20;4.65;;;4.00;;
61471;SDS011;47337;54.068;12.114;2023-05-10T04:44:45;8.60;;;3.92;;
61471;SDS011;47337;54.068;12.114;2023-05-10T04:47:15;4.70;;;4.05;;
61471;SDS011;47337;54.068;12.114;2023-05-10T04:49:43;6.85;;;4.70;;
61471;SDS011;47337;54.068;12.114;2023-05-10T04:52:10;6.78;;;4.35;;
61471;SDS011;47337;54.068;12.114;2023-05-10T04:54:43;8.35;;;4.55;;
61471;SDS011;47337;54.068;12.114;2023-05-10T04:57:09;4.90;;;3.65;;
61471;SDS011;47337;54.068;12.114;2023-05-10T04:59:35;7.22;;;4.15;;
61471;SDS011;47337;54.068;12.114;2023-05-10T05:02:04;5.88;;;3.80;;
61471;SDS011;47337;54.068;12.114;2023-05-10T05:04:30;5.18;;;4.22;;
61471;SDS011;47337;54.068;12.114;2023-05-10T05:06:58;5.38;;;4.20;;
61471;SDS011;47337;54.068;12.114;2023-05-10T05:09:24;5.82;;;4.75;;
61471;SDS011;47337;54.068;12.114;2023-05-10T05:11:51;9.32;;;4.30;;
61471;SDS011;47337;54.068;12.114;2023-05-10T05:14:19;5.13;;;4.13;;
61471;SDS011;47337;54.068;12.114;2023-05-10T05:16:46;5.28;;;4.20;;
61471;SDS011;47337;54.068;12.114;2023-05-10T05:19:12;5.88;;;4.68;;
61471;SDS011;47337;54.068;12.114;2023-05-10T05:21:40;6.18;;;3.95;;
61471;SDS011;47337;54.068;12.114;2023-05-10T05:24:05;6.50;;;4.20;;
61471;SDS011;47337;54.068;12.114;2023-05-10T05:26:31;6.03;;;3.92;;
61471;SDS011;47337;54.068;12.114;2023-05-10T05:28:57;6.75;;;4.07;;
61471;SDS011;47337;54.068;12.114;2023-05-10T05:31:24;5.97;;;3.63;;
61471;SDS011;47337;54.068;12.114;2023-05-10T05:33:53;5.97;;;3.97;;
61471;SDS011;47337;54.068;12.114;2023-05-10T05:36:18;4.53;;;3.70;;
61471;SDS011;47337;54.068;12.114;2023-05-10T05:38:44;3.90;;;3.50;;
61471;SDS011;47337;54.068;12.114;2023-05-10T05:41:12;7.28;;;3.58;;
61471;SDS011;47337;54.068;12.114;2023-05-10T05:43:37;5.45;;;3.38;;
61471;SDS011;47337;54.068;12.114;2023-05-10T05:46:07;5.88;;;3.72;;
61471;SDS011;47337;54.068;12.114;2023-05-10T05:48:33;4.72;;;3.50;;
61471;SDS011;47337;54.068;12.114;2023-05-10T05:51:01;5.75;;;3.35;;
61471;SDS011;47337;54.068;12.114;2023-05-10T05:53:28;5.38;;;3.88;;
61471;SDS011;47337;54.068;12.114;2023-05-10T05:55:54;6.82;;;3.67;;
61471;SDS011;47337;54.068;12.114;2023-05-10T05:58:23;5.45;;;3.58;;
61471;SDS011;47337;54.068;12.114;2023-05-10T06:00:48;6.38;;;3.22;;
61471;SDS011;47337;54.068;12.114;2023-05-10T06:03:16;6.57;;;3.80;;
61471;SDS011;47337;54.068;12.114;2023-05-10T06:05:42;4.20;;;3.58;;
61471;SDS011;47337;54.068;12.114;2023-05-10T06:08:08;4.50;;;3.75;;
61471;SDS011;47337;54.068;12.114;2023-05-10T06:10:36;7.15;;;3.70;;
61471;SDS011;47337;54.068;12.114;2023-05-10T06:13:04;5.13;;;3.90;;
61471;SDS011;47337;54.068;12.114;2023-05-10T06:15:29;4.60;;;3.33;;
61471;SDS011;47337;54.068;12.114;2023-05-10T06:17:57;3.85;;;3.45;;
61471;SDS011;47337;54.068;12.114;2023-05-10T06:20:23;5.03;;;3.58;;
61471;SDS011;47337;54.068;12.114;2023-05-10T06:22:48;4.60;;;3.55;;
61471;SDS011;47337;54.068;12.114;2023-05-10T06:25:13;8.63;;;4.03;;
61471;SDS011;47337;54.068;12.114;2023-05-10T06:27:43;4.88;;;3.75;;
61471;SDS011;47337;54.068;12.114;2023-05-10T06:30:08;5.57;;;3.85;;
61471;SDS011;47337;54.068;12.114;2023-05-10T06:32:38;4.85;;;3.50;;
61471;SDS011;47337;54.068;12.114;2023-05-10T06:35:03;5.80;;;3.72;;
61471;SDS011;47337;54.068;12.114;2023-05-10T06:37:32;6.05;;;3.50;;
61471;SDS011;47337;54.068;12.114;2023-05-10T06:39:59;7.10;;;3.67;;
61471;SDS011;47337;54.068;12.114;2023-05-10T06:42:27;10.45;;;3.70;;
61471;SDS011;47337;54.068;12.114;2023-05-10T06:44:55;6.85;;;3.70;;
61471;SDS011;47337;54.068;12.114;2023-05-10T06:47:20;4.63;;;3.47;;
61471;SDS011;47337;54.068;12.114;2023-05-10T06:49:46;5.00;;;3.33;;
61471;SDS011;47337;54.068;12.114;2023-05-10T06:52:12;7.30;;;3.75;;
61471;SDS011;47337;54.068;12.114;2023-05-10T06:54:37;3.70;;;3.30;;
61471;SDS011;47337;54.068;12.114;2023-05-10T06:57:03;11.57;;;3.20;;
61471;SDS011;47337;54.068;12.114;2023-05-10T06:59:29;5.18;;;3.58;;
61471;SDS011;47337;54.068;12.114;2023-05-10T07:01:54;4.45;;;3.15;;
61471;SDS011;47337;54.068;12.114;2023-05-10T07:04:19;4.47;;;3.30;;
61471;SDS011;47337;54.068;12.114;2023-05-10T07:06:47;4.10;;;3.22;;
61471;SDS011;47337;54.068;12.114;2023-05-10T07:09:14;4.90;;;3.55;;
61471;SDS011;47337;54.068;12.114;2023-05-10T07:11:42;4.63;;;3.30;;
61471;SDS011;47337;54.068;12.114;2023-05-10T07:14:07;3.97;;;3.20;;
61471;SDS011;47337;54.068;12.114;2023-05-10T07:16:32;8.18;;;3.42;;
61471;SDS011;47337;54.068;12.114;2023-05-10T07:18:58;7.20;;;4.03;;
61471;SDS011;47337;54.068;12.114;2023-05-10T07:21:27;8.90;;;3.50;;
61471;SDS011;47337;54.068;12.114;2023-05-10T07:23:53;4.88;;;3.33;;
61471;SDS011;47337;54.068;12.114;2023-05-10T07:26:19;3.95;;;3.20;;
61471;SDS011;47337;54.068;12.114;2023-05-10T07:28:45;5.15;;;3.03;;
61471;SDS011;47337;54.068;12.114;2023-05-10T07:31:11;9.75;;;4.30;;
61471;SDS011;47337;54.068;12.114;2023-05-10T07:33:39;4.15;;;3.35;;
61471;SDS011;47337;54.068;12.114;2023-05-10T07:36:04;7.50;;;4.20;;
61471;SDS011;47337;54.068;12.114;2023-05-10T07:38:30;17.20;;;4.97;;
61471;SDS011;47337;54.068;12.114;2023-05-10T07:40:55;4.97;;;3.10;;
61471;SDS011;47337;54.068;12.114;2023-05-10T07:43:23;6.13;;;3.00;;
61471;SDS011;47337;54.068;12.114;2023-05-10T07:45:48;3.90;;;3.17;;
61471;SDS011;47337;54.068;12.114;2023-05-10T07:48:17;3.33;;;3.00;;
61471;SDS011;47337;54.068;12.114;2023-05-10T07:50:42;6.43;;;3.63;;
61471;SDS011;47337;54.068;12.114;2023-05-10T07:53:10;5.47;;;3.60;;
61471;SDS011;47337;54.068;12.114;2023-05-10T07:55:35;5.05;;;3.13;;
61471;SDS011;47337;54.068;12.114;2023-05-10T07:58:03;4.68;;;3.25;;
61471;SDS011;47337;54.068;12.114;2023-05-10T08:00:31;5.85;;;3.55;;
61471;SDS011;47337;54.068;12.114;2023-05-10T08:02:56;4.93;;;3.08;;
61471;SDS011;47337;54.068;12.114;2023-05-10T08:05:21;6.35;;;3.13;;
61471;SDS011;47337;54.068;12.114;2023-05-10T08:07:47;4.90;;;3.35;;
61471;SDS011;47337;54.068;12.114;2023-05-10T08:10:12;6.95;;;3.35;;
61471;SDS011;47337;54.068;12.114;2023-05-10T08:12:38;7.10;;;3.30;;
61471;SDS011;47337;54.068;12.114;2023-05-10T08:15:05;5.13;;;3.17;;
61471;SDS011;47337;54.068;12.114;2023-05-10T08:17:32;6.93;;;3.22;;
61471;SDS011;47337;54.068;12.114;2023-05-10T08:19:59;4.57;;;3.25;;
61471;SDS011;47337;54.068;12.114;2023-05-10T08:22:25;6.93;;;3.40;;
61471;SDS011;47337;54.068;12.114;2023-05-10T08:24:52;3.53;;;2.90;;
61471;SDS011;47337;54.068;12.114;2023-05-10T08:27:18;6.22;;;3.38;;
61471;SDS011;47337;54.068;12.114;2023-05-10T08:29:43;5.35;;;2.97;;
61471;SDS011;47337;54.068;12.114;2023-05-10T08:32:11;5.65;;;3.10;;
61471;SDS011;47337;54.068;12.114;2023-05-10T08:34:42;6.25;;;3.10;;
61471;SDS011;47337;54.068;12.114;2023-05-10T08:37:07;6.30;;;3.30;;
61471;SDS011;47337;54.068;12.114;2023-05-10T08:39:36;3.95;;;2.90;;
61471;SDS011;47337;54.068;12.114;2023-05-10T08:42:06;3.00;;;2.72;;
61471;SDS011;47337;54.068;12.114;2023-05-10T08:44:38;4.78;;;3.10;;
61471;SDS011;47337;54.068;12.114;2023-05-10T08:47:07;2.85;;;2.58;;
61471;SDS011;47337;54.068;12.114;2023-05-10T08:49:36;6.50;;;3.17;;
61471;SDS011;47337;54.068;12.114;2023-05-10T08:52:03;4.03;;;3.22;;
61471;SDS011;47337;54.068;12.114;2023-05-10T08:54:31;3.97;;;3.30;;
61471;SDS011;47337;54.068;12.114;2023-05-10T08:57:02;4.75;;;3.35;;
61471;SDS011;47337;54.068;12.114;2023-05-10T08:59:30;5.38;;;3.17;;
61471;SDS011;47337;54.068;12.114;2023-05-10T09:01:57;4.70;;;3.25;;
61471;SDS011;47337;54.068;12.114;2023-05-10T09:04:23;3.70;;;3.05;;
61471;SDS011;47337;54.068;12.114;2023-05-10T09:06:49;5.32;;;2.80;;
61471;SDS011;47337;54.068;12.114;2023-05-10T09:09:17;4.13;;;2.90;;
61471;SDS011;47337;54.068;12.114;2023-05-10T09:11:43;6.80;;;3.45;;
61471;SDS011;47337;54.068;12.114;2023-05-10T09:14:09;4.57;;;2.92;;
61471;SDS011;47337;54.068;12.114;2023-05-10T09:16:39;7.10;;;2.85;;
61471;SDS011;47337;54.068;12.114;2023-05-10T09:19:05;8.25;;;3.33;;
61471;SDS011;47337;54.068;12.114;2023-05-10T09:21:34;5.97;;;3.28;;
61471;SDS011;47337;54.068;12.114;2023-05-10T09:24:03;3.65;;;2.67;;
61471;SDS011;47337;54.068;12.114;2023-05-10T09:26:30;3.33;;;2.95;;
61471;SDS011;47337;54.068;12.114;2023-05-10T09:29:00;4.50;;;3.17;;
61471;SDS011;47337;54.068;12.114;2023-05-10T09:32:00;5.32;;;3.05;;
61471;SDS011;47337;54.068;12.114;2023-05-10T09:34:28;3.95;;;3.20;;
61471;SDS011;47337;54.068;12.114;2023-05-10T09:36:56;2.70;;;2.50;;
61471;SDS011;47337;54.068;12.114;2023-05-10T09:39:32;5.38;;;2.95;;
61471;SDS011;47337;54.068;12.114;2023-05-10T09:42:04;3.00;;;2.47;;
61471;SDS011;47337;54.068;12.114;2023-05-10T09:44:36;5.53;;;3.28;;
61471;SDS011;47337;54.068;12.114;2023-05-10T09:47:02;3.55;;;2.58;;
61471;SDS011;47337;54.068;12.114;2023-05-10T09:49:28;2.78;;;2.47;;
61471;SDS011;47337;54.068;12.114;2023-05-10T09:52:02;4.20;;;2.90;;
61471;SDS011;47337;54.068;12.114;2023-05-10T09:54:34;3.20;;;2.78;;
61471;SDS011;47337;54.068;12.114;2023-05-10T09:57:00;5.93;;;3.30;;
61471;SDS011;47337;54.068;12.114;2023-05-10T09:59:28;3.10;;;2.80;;
61471;SDS011;47337;54.068;12.114;2023-05-10T10:02:00;4.57;;;3.15;;
61471;SDS011;47337;54.068;12.114;2023-05-10T10:04:25;4.00;;;2.85;;
61471;SDS011;47337;54.068;12.114;2023-05-10T10:07:03;4.15;;;2.65;;
61471;SDS011;47337;54.068;12.114;2023-05-10T10:09:30;5.03;;;3.13;;
61471;SDS011;47337;54.068;12.114;2023-05-10T10:11:57;4.03;;;2.55;;
61471;SDS011;47337;54.068;12.114;2023-05-10T10:14:23;8.65;;;2.78;;
61471;SDS011;47337;54.068;12.114;2023-05-10T10:16:51;3.45;;;2.50;;
61471;SDS011;47337;54.068;12.114;2023-05-10T10:19:20;3.53;;;2.80;;
61471;SDS011;47337;54.068;12.114;2023-05-10T10:21:51;4.55;;;2.80;;
61471;SDS011;47337;54.068;12.114;2023-05-10T10:24:19;3.45;;;2.55;;
61471;SDS011;47337;54.068;12.114;2023-05-10T10:26:46;3.97;;;2.35;;
61471;SDS011;47337;54.068;12.114;2023-05-10T10:29:23;3.33;;;2.33;;
61471;SDS011;47337;54.068;12.114;2023-05-10T10:32:38;3.17;;;2.60;;
61471;SDS011;47337;54.068;12.114;2023-05-10T10:35:19;3.65;;;2.70;;
61471;SDS011;47337;54.068;12.114;2023-05-10T10:37:48;5.05;;;2.70;;
61471;SDS011;47337;54.068;12.114;2023-05-10T10:42:56;4.07;;;2.40;;
61471;SDS011;47337;54.068;12.114;2023-05-10T10:45:24;4.90;;;2.45;;
61471;SDS011;47337;54.068;12.114;2023-05-10T10:47:54;4.53;;;2.30;;
61471;SDS011;47337;54.068;12.114;2023-05-10T10:50:55;4.05;;;2.20;;
61471;SDS011;47337;54.068;12.114;2023-05-10T10:53:26;3.38;;;2.22;;
61471;SDS011;47337;54.068;12.114;2023-05-10T10:56:06;5.03;;;2.28;;
61471;SDS011;47337;54.068;12.114;2023-05-10T10:58:34;4.38;;;2.42;;
61471;SDS011;47337;54.068;12.114;2023-05-10T11:01:18;2.33;;;2.10;;
61471;SDS011;47337;54.068;12.114;2023-05-10T11:06:31;3.30;;;2.53;;
61471;SDS011;47337;54.068;12.114;2023-05-10T11:08:59;5.40;;;2.55;;
61471;SDS011;47337;54.068;12.114;2023-05-10T11:11:55;5.50;;;2.22;;
61471;SDS011;47337;54.068;12.114;2023-05-10T11:14:23;2.47;;;2.28;;
61471;SDS011;47337;54.068;12.114;2023-05-10T11:16:49;4.32;;;2.17;;
61471;SDS011;47337;54.068;12.114;2023-05-10T11:19:17;5.43;;;2.30;;
61471;SDS011;47337;54.068;12.114;2023-05-10T11:24:30;3.80;;;1.90;;
61471;SDS011;47337;54.068;12.114;2023-05-10T11:26:58;4.95;;;2.83;;
61471;SDS011;47337;54.068;12.114;2023-05-10T11:29:27;5.05;;;2.47;;
61471;SDS011;47337;54.068;12.114;2023-05-10T11:31:56;4.30;;;2.28;;
61471;SDS011;47337;54.068;12.114;2023-05-10T11:34:24;3.55;;;2.22;;
61471;SDS011;47337;54.068;12.114;2023-05-10T11:36:55;3.35;;;2.30;;
61471;SDS011;47337;54.068;12.114;2023-05-10T11:39:22;4.72;;;2.55;;
61471;SDS011;47337;54.068;12.114;2023-05-10T11:41:52;4.47;;;2.30;;
61471;SDS011;47337;54.068;12.114;2023-05-10T11:44:17;3.30;;;2.28;;
61471;SDS011;47337;54.068;12.114;2023-05-10T11:46:45;2.88;;;2.40;;
61471;SDS011;47337;54.068;12.114;2023-05-10T11:49:13;5.32;;;2.33;;
61471;SDS011;47337;54.068;12.114;2023-05-10T11:51:38;3.03;;;2.15;;
61471;SDS011;47337;54.068;12.114;2023-05-10T11:54:07;4.47;;;2.40;;
61471;SDS011;47337;54.068;12.114;2023-05-10T11:56:34;6.05;;;2.60;;
61471;SDS011;47337;54.068;12.114;2023-05-10T11:59:03;2.72;;;2.20;;
61471;SDS011;47337;54.068;12.114;2023-05-10T12:01:28;2.50;;;2.25;;
61471;SDS011;47337;54.068;12.114;2023-05-10T12:03:55;4.93;;;2.28;;
61471;SDS011;47337;54.068;12.114;2023-05-10T12:06:29;4.22;;;2.42;;
61471;SDS011;47337;54.068;12.114;2023-05-10T12:08:56;3.50;;;2.20;;
61471;SDS011;47337;54.068;12.114;2023-05-10T12:11:26;2.30;;;2.10;;
61471;SDS011;47337;54.068;12.114;2023-05-10T12:13:53;3.33;;;2.20;;
61471;SDS011;47337;54.068;12.114;2023-05-10T12:16:23;3.67;;;2.15;;
61471;SDS011;47337;54.068;12.114;2023-05-10T12:18:50;6.03;;;2.47;;
61471;SDS011;47337;54.068;12.114;2023-05-10T12:21:17;2.95;;;2.28;;
61471;SDS011;47337;54.068;12.114;2023-05-10T12:23:47;2.70;;;2.25;;
61471;SDS011;47337;54.068;12.114;2023-05-10T12:26:17;4.75;;;2.30;;
61471;SDS011;47337;54.068;12.114;2023-05-10T12:28:43;7.65;;;2.15;;
61471;SDS011;47337;54.068;12.114;2023-05-10T12:31:09;13.10;;;3.15;;
61471;SDS011;47337;54.068;12.114;2023-05-10T12:33:35;5.40;;;2.15;;
61471;SDS011;47337;54.068;12.114;2023-05-10T12:36:03;3.20;;;2.13;;
61471;SDS011;47337;54.068;12.114;2023-05-10T12:38:38;5.30;;;2.10;;
61471;SDS011;47337;54.068;12.114;2023-05-10T12:41:11;4.40;;;2.35;;
61471;SDS011;47337;54.068;12.114;2023-05-10T12:43:38;5.00;;;2.35;;
61471;SDS011;47337;54.068;12.114;2023-05-10T12:46:08;4.13;;;2.60;;
61471;SDS011;47337;54.068;12.114;2023-05-10T12:48:35;5.38;;;2.35;;
61471;SDS011;47337;54.068;12.114;2023-05-10T12:51:02;4.45;;;2.00;;
61471;SDS011;47337;54.068;12.114;2023-05-10T12:53:27;2.65;;;2.17;;
61471;SDS011;47337;54.068;12.114;2023-05-10T12:55:53;6.30;;;2.63;;
61471;SDS011;47337;54.068;12.114;2023-05-10T12:58:21;2.60;;;2.13;;
61471;SDS011;47337;54.068;12.114;2023-05-10T13:00:48;8.13;;;2.88;;
61471;SDS011;47337;54.068;12.114;2023-05-10T13:03:20;3.22;;;2.40;;
61471;SDS011;47337;54.068;12.114;2023-05-10T13:05:46;2.30;;;2.00;;
61471;SDS011;47337;54.068;12.114;2023-05-10T13:08:14;4.22;;;2.45;;
61471;SDS011;47337;54.068;12.114;2023-05-10T13:10:39;5.07;;;2.00;;
61471;SDS011;47337;54.068;12.114;2023-05-10T13:13:07;5.32;;;2.60;;
61471;SDS011;47337;54.068;12.114;2023-05-10T13:15:33;3.78;;;2.30;;
61471;SDS011;47337;54.068;12.114;2023-05-10T13:17:58;2.58;;;2.38;;
61471;SDS011;47337;54.068;12.114;2023-05-10T13:20:25;3.00;;;2.35;;
61471;SDS011;47337;54.068;12.114;2023-05-10T13:22:53;3.45;;;2.60;;
61471;SDS011;47337;54.068;12.114;2023-05-10T13:25:18;4.45;;;2.50;;
61471;SDS011;47337;54.068;12.114;2023-05-10T13:27:44;2.78;;;2.58;;
61471;SDS011;47337;54.068;12.114;2023-05-10T13:30:10;4.05;;;2.42;;
61471;SDS011;47337;54.068;12.114;2023-05-10T13:32:36;2.45;;;2.25;;
61471;SDS011;47337;54.068;12.114;2023-05-10T13:35:04;3.60;;;2.50;;
61471;SDS011;47337;54.068;12.114;2023-05-10T13:37:30;4.25;;;2.35;;
61471;SDS011;47337;54.068;12.114;2023-05-10T13:40:02;2.40;;;2.17;;
61471;SDS011;47337;54.068;12.114;2023-05-10T13:42:31;4.68;;;2.60;;
61471;SDS011;47337;54.068;12.114;2023-05-10T13:45:01;3.15;;;2.40;;
61471;SDS011;47337;54.068;12.114;2023-05-10T13:47:31;3.47;;;2.80;;
61471;SDS011;47337;54.068;12.114;2023-05-10T13:49:57;3.72;;;2.65;;
61471;SDS011;47337;54.068;12.114;2023-05-10T13:52:23;2.60;;;2.30;;
61471;SDS011;47337;54.068;12.114;2023-05-10T13:54:48;4.43;;;2.60;;
61471;SDS011;47337;54.068;12.114;2023-05-10T13:57:22;5.00;;;2.33;;
61471;SDS011;47337;54.068;12.114;2023-05-10T13:59:49;3.75;;;2.53;;
61471;SDS011;47337;54.068;12.114;2023-05-10T14:02:15;8.65;;;2.55;;
61471;SDS011;47337;54.068;12.114;2023-05-10T14:04:41;7.45;;;2.40;;
61471;SDS011;47337;54.068;12.114;2023-05-10T14:07:06;4.05;;;2.50;;
61471;SDS011;47337;54.068;12.114;2023-05-10T14:09:31;4.47;;;2.60;;
61471;SDS011;47337;54.068;12.114;2023-05-10T14:11:59;3.63;;;2.40;;
61471;SDS011;47337;54.068;12.114;2023-05-10T14:14:27;4.25;;;2.78;;
61471;SDS011;47337;54.068;12.114;2023-05-10T14:16:54;8.27;;;2.70;;
61471;SDS011;47337;54.068;12.114;2023-05-10T14:19:24;4.18;;;2.38;;
61471;SDS011;47337;54.068;12.114;2023-05-10T14:21:51;8.48;;;2.40;;
61471;SDS011;47337;54.068;12.114;2023-05-10T14:24:17;3.05;;;2.38;;
61471;SDS011;47337;54.068;12.114;2023-05-10T14:26:45;5.80;;;2.40;;
61471;SDS011;47337;54.068;12.114;2023-05-10T14:29:12;3.83;;;2.35;;
61471;SDS011;47337;54.068;12.114;2023-05-10T14:31:38;2.65;;;2.35;;
61471;SDS011;47337;54.068;12.114;2023-05-10T14:34:03;4.90;;;2.78;;
61471;SDS011;47337;54.068;12.114;2023-05-10T14:36:29;11.90;;;2.58;;
61471;SDS011;47337;54.068;12.114;2023-05-10T14:38:54;3.05;;;2.53;;
61471;SDS011;47337;54.068;12.114;2023-05-10T14:41:19;4.70;;;2.90;;
61471;SDS011;47337;54.068;12.114;2023-05-10T14:43:45;2.92;;;2.60;;
61471;SDS011;47337;54.068;12.114;2023-05-10T14:46:10;4.05;;;2.25;;
61471;SDS011;47337;54.068;12.114;2023-05-10T14:48:36;2.92;;;2.17;;
61471;SDS011;47337;54.068;12.114;2023-05-10T14:51:01;6.43;;;2.67;;
61471;SDS011;47337;54.068;12.114;2023-05-10T14:53:27;4.65;;;2.85;;
61471;SDS011;47337;54.068;12.114;2023-05-10T14:55:52;3.33;;;2.35;;
61471;SDS011;47337;54.068;12.114;2023-05-10T14:58:18;3.60;;;2.50;;
61471;SDS011;47337;54.068;12.114;2023-05-10T15:00:46;4.18;;;2.50;;